createdAt,value
2022-08-25T00:02:28.081Z,98805.80
2022-08-25T00:09:31.034Z,98809.80
2022-08-25T00:16:22.828Z,98800.80
2022-08-25T00:23:14.591Z,98800.00
2022-08-25T00:30:17.557Z,98796.80
2022-08-25T00:37:20.636Z,98796.20
2022-08-25T00:44:26.301Z,98788.40
2022-08-25T00:51:19.917Z,98780.40
2022-08-25T00:58:28.662Z,98781.20
2022-08-25T01:05:31.985Z,98774.60
2022-08-25T01:12:35.206Z,98778.40
2022-08-25T01:19:50.197Z,98779.20
2022-08-25T01:26:45.221Z,98780.00
2022-08-25T01:33:47.405Z,98774.60
2022-08-25T01:40:43.877Z,98767.40
2022-08-25T01:47:47.197Z,98758.40
2022-08-25T01:54:51.288Z,98746.20
2022-08-25T02:01:59.654Z,98751.20
2022-08-25T02:09:03.478Z,98746.00
2022-08-25T02:15:56.905Z,98752.60
2022-08-25T02:23:00.202Z,98748.60
2022-08-25T02:30:03.484Z,98747.20
2022-08-25T02:37:00.374Z,98739.80
2022-08-25T02:43:47.609Z,98743.40
2022-08-25T02:50:50.525Z,98740.40
2022-08-25T02:57:55.000Z,98733.80
2022-08-25T03:04:58.205Z,98737.80
2022-08-25T03:11:41.480Z,98738.00
2022-08-25T03:18:44.648Z,98727.20
2022-08-25T03:25:46.541Z,98720.80
2022-08-25T03:32:36.848Z,98711.80
2022-08-25T03:39:00.409Z,98718.40
2022-08-25T03:46:07.116Z,98720.20
2022-08-25T03:53:10.845Z,98716.60
2022-08-25T04:00:16.069Z,98715.00
2022-08-25T04:07:18.877Z,98716.20
2022-08-25T04:14:22.275Z,98727.60
2022-08-25T04:21:25.574Z,98724.20
2022-08-25T04:28:28.235Z,98734.40
2022-08-25T04:35:31.282Z,98729.80
2022-08-25T04:42:35.186Z,98731.80
2022-08-25T04:49:37.791Z,98731.00
2022-08-25T04:56:40.579Z,98723.40
2022-08-25T05:03:41.932Z,98726.60
2022-08-25T05:10:45.226Z,98728.60
2022-08-25T05:17:39.755Z,98726.80
2022-08-25T05:24:42.316Z,98727.60
2022-08-25T05:31:49.979Z,98725.60
2022-08-25T05:38:46.361Z,98723.40
2022-08-25T05:45:49.745Z,98715.00
2022-08-25T05:52:52.829Z,98721.00
2022-08-25T05:59:55.938Z,98714.80
2022-08-25T06:06:59.183Z,98714.00
2022-08-25T06:14:01.982Z,98713.20
2022-08-25T06:21:04.859Z,98712.40
2022-08-25T06:27:57.655Z,98713.00
2022-08-25T06:34:49.721Z,98712.80
2022-08-25T06:41:52.724Z,98720.20
2022-08-25T06:48:55.578Z,98714.80
2022-08-25T06:56:02.263Z,98713.60
2022-08-25T07:03:08.036Z,98717.40
2022-08-25T07:10:11.072Z,98716.20
2022-08-25T07:17:16.870Z,98710.80
2022-08-25T07:24:12.842Z,98711.80
2022-08-25T07:31:15.873Z,98715.60
2022-08-25T07:37:59.133Z,98712.00
2022-08-25T07:44:40.933Z,98712.00
2022-08-25T07:51:19.937Z,98714.80
2022-08-25T07:58:23.090Z,98716.20
2022-08-25T08:05:26.382Z,98707.60
2022-08-25T08:12:23.292Z,98704.80
2022-08-25T08:19:17.161Z,98700.60
2022-08-25T08:26:20.686Z,98703.80
2022-08-25T08:33:40.661Z,98698.60
2022-08-25T08:40:43.331Z,98702.60
2022-08-25T08:47:48.814Z,98704.00
2022-08-25T08:55:02.115Z,98701.60
2022-08-25T09:01:59.233Z,98699.20
2022-08-25T09:08:44.510Z,98699.80
2022-08-25T09:15:14.021Z,98701.60
2022-08-25T09:20:59.761Z,98699.20
2022-08-25T09:28:06.150Z,98701.60
2022-08-25T09:35:02.468Z,98693.20
2022-08-25T09:41:59.360Z,98694.40
2022-08-25T09:49:05.628Z,98686.20
2022-08-25T09:56:14.328Z,98688.20
2022-08-25T10:03:22.761Z,98678.00
2022-08-25T10:10:37.024Z,98672.20
2022-08-25T10:17:34.116Z,98670.40
2022-08-25T10:24:37.379Z,98664.00
2022-08-25T10:31:12.660Z,98654.40
2022-08-25T10:37:05.630Z,98642.20
2022-08-25T10:43:19.188Z,98651.00
2022-08-25T10:49:20.030Z,98654.20
2022-08-25T10:55:40.246Z,98646.20
2022-08-25T11:01:45.668Z,98632.60
2022-08-25T11:07:45.379Z,98626.60
2022-08-25T11:13:47.880Z,98631.20
2022-08-25T11:20:05.208Z,98626.80
2022-08-25T11:25:43.461Z,98622.20
2022-08-25T11:31:39.228Z,98613.40
2022-08-25T11:37:30.169Z,98610.00
2022-08-25T11:43:37.528Z,98600.80
2022-08-25T11:49:38.184Z,98588.60
2022-08-25T11:56:06.558Z,98584.80
2022-08-25T12:02:42.567Z,98580.60
2022-08-25T12:09:00.175Z,98574.00
2022-08-25T12:15:14.890Z,98568.00
2022-08-25T12:21:43.555Z,98567.00
2022-08-25T12:28:21.748Z,98561.40
2022-08-25T12:35:11.486Z,98559.40
2022-08-25T12:41:31.279Z,98556.40
2022-08-25T12:48:27.578Z,98559.00
2022-08-25T12:55:37.517Z,98554.80
2022-08-25T13:02:30.080Z,98553.60
2022-08-25T13:08:49.164Z,98539.80
2022-08-25T13:15:47.040Z,98544.20
2022-08-25T13:21:52.118Z,98544.60
2022-08-25T13:28:40.811Z,98531.20
2022-08-25T13:35:52.382Z,98529.80
2022-08-25T13:42:50.842Z,98529.80
2022-08-25T13:49:18.691Z,98529.80
2022-08-25T13:55:50.714Z,98531.40
2022-08-25T14:02:19.355Z,98524.00
2022-08-25T14:08:41.668Z,98520.00
2022-08-25T14:15:42.954Z,98512.60
2022-08-25T14:21:43.111Z,98511.80
2022-08-25T14:28:08.322Z,98503.80
2022-08-25T14:34:33.916Z,98503.40
2022-08-25T14:40:19.954Z,98496.20
2022-08-25T14:46:11.000Z,98496.60
2022-08-25T14:52:54.304Z,98485.60
2022-08-25T15:00:02.779Z,98490.40
2022-08-25T15:06:55.327Z,98480.80
2022-08-25T15:12:48.121Z,98478.40
2022-08-25T15:19:06.478Z,98477.60
2022-08-25T15:25:28.632Z,98484.80
2022-08-25T15:31:39.504Z,98481.20
2022-08-25T15:37:52.140Z,98479.60
2022-08-25T15:44:01.387Z,98480.60
2022-08-25T15:50:43.044Z,98480.80
2022-08-25T15:56:52.742Z,98475.00
2022-08-25T16:02:36.413Z,98468.60
2022-08-25T16:08:55.980Z,98468.20
2022-08-25T16:14:42.448Z,98466.40
2022-08-25T16:20:28.576Z,98468.80
2022-08-25T16:25:59.575Z,98466.80
2022-08-25T16:31:29.066Z,98471.60
2022-08-25T16:36:54.910Z,98475.80
2022-08-25T16:42:26.030Z,98478.60
2022-08-25T16:48:12.771Z,98472.20
2022-08-25T16:54:00.570Z,98471.80
2022-08-25T16:59:26.913Z,98477.80
2022-08-25T17:04:54.867Z,98470.00
2022-08-25T17:10:44.714Z,98472.60
2022-08-25T17:16:10.709Z,98471.20
2022-08-25T17:21:37.739Z,98466.00
2022-08-25T17:27:05.447Z,98471.60
2022-08-25T17:32:53.465Z,98470.40
2022-08-25T17:38:20.065Z,98475.00
2022-08-25T17:44:22.872Z,98476.60
2022-08-25T17:49:50.347Z,98480.60
2022-08-25T17:55:49.829Z,98481.20
2022-08-25T18:01:49.472Z,98485.20
2022-08-25T18:07:56.637Z,98485.40
2022-08-25T18:13:35.937Z,98482.60
2022-08-25T18:19:55.555Z,98486.20
2022-08-25T18:26:30.692Z,98492.60
2022-08-25T18:33:06.660Z,98492.20
2022-08-25T18:39:16.588Z,98496.60
2022-08-25T18:45:59.361Z,98504.20
2022-08-25T18:52:26.204Z,98508.80
2022-08-25T18:58:28.972Z,98507.20
2022-08-25T19:05:04.748Z,98495.80
2022-08-25T19:11:39.979Z,98503.80
2022-08-25T19:17:24.643Z,98512.60
2022-08-25T19:22:47.643Z,98512.00
2022-08-25T19:29:03.911Z,98517.00
2022-08-25T19:35:14.517Z,98505.20
2022-08-25T19:40:55.294Z,98501.80
2022-08-25T19:46:25.738Z,98507.80
2022-08-25T19:51:57.267Z,98509.60
2022-08-25T19:57:42.405Z,98501.80
2022-08-25T20:04:02.190Z,98501.20
2022-08-25T20:10:45.170Z,98494.80
2022-08-25T20:17:28.847Z,98495.00
2022-08-25T20:24:09.227Z,98496.40
2022-08-25T20:30:55.149Z,98495.60
2022-08-25T20:37:37.642Z,98487.20
2022-08-25T20:44:23.319Z,98477.00
2022-08-25T20:50:46.382Z,98475.80
2022-08-25T20:57:40.381Z,98479.20
2022-08-25T21:04:23.994Z,98476.20
2022-08-25T21:11:07.137Z,98476.00
2022-08-25T21:17:52.256Z,98477.20
2022-08-25T21:24:30.727Z,98472.80
2022-08-25T21:31:13.756Z,98472.20
2022-08-25T21:37:45.729Z,98465.80
2022-08-25T21:44:28.725Z,98468.80
2022-08-25T21:51:11.346Z,98470.00
2022-08-25T21:57:53.874Z,98461.40
2022-08-25T22:04:36.800Z,98456.40
2022-08-25T22:11:24.186Z,98454.20
2022-08-25T22:18:06.763Z,98453.00
2022-08-25T22:24:50.569Z,98450.20
2022-08-25T22:31:33.427Z,98449.20
2022-08-25T22:38:07.409Z,98446.40
2022-08-25T22:44:55.643Z,98445.80
2022-08-25T22:51:47.496Z,98442.60
2022-08-25T22:58:10.562Z,98434.20
2022-08-25T23:04:55.308Z,98429.80
2022-08-25T23:11:38.884Z,98427.00
2022-08-25T23:18:21.775Z,98413.60
2022-08-25T23:24:57.201Z,98413.60
2022-08-25T23:31:40.158Z,98415.40
2022-08-25T23:38:22.048Z,98409.60
2022-08-25T23:45:04.922Z,98403.60
2022-08-25T23:51:47.694Z,98405.20
2022-08-25T23:58:31.348Z,98402.40
